Sunday, November 19, 2017, 11:09 PM EST
Back to Local

KBTP, Butler, Butler County Airport/k W Scholter Field

Location: Renfrew, PA, United States Lat: 40.783
Local Time: 11:09 PM EST ( 4:09 GMT) Lon: -79.95
Time Zone: US/Eastern Elev: 1246 ft

Show me the last for .
Show Decoded

2017-11-19 21:56 METAR KBTP 200256Z AUTO 27012G21KT 10SM UP SCT033 SCT045 OVC055 M01/M05 A2996
                 RMK AO2 UPB51 SLP163 P0000 60000 T10061050 53022 FZRANO =
2017-11-19 20:56 METAR KBTP 200156Z AUTO 27010G20KT 10SM SCT027 BKN032 BKN065 M01/M04 A2993 RMK
                 AO2 SLP155 T10061044 FZRANO =
2017-11-19 20:19 METAR KBTP 200119Z AUTO 28010G19KT 10SM BKN029 BKN034 OVC070 00/M04 A2992 RMK
                 AO2 FZRANO =
2017-11-19 19:56 METAR KBTP 200056Z AUTO 27009G14KT 10SM FEW025 SCT034 OVC070 00/M04 A2991 RMK
                 AO2 RAB2359E02SNB02E19 SLP146 P0000 T00001039 FZRANO =
2017-11-19 19:46 METAR KBTP 200046Z AUTO 27011G15KT 10SM SCT023 OVC070 00/M03 A2990 RMK AO2
                 RAB2359E02SNB02E19 P0000 FZRANO =
2017-11-19 18:56 METAR KBTP 192356Z AUTO 27007G14KT 10SM BKN023 BKN039 OVC070 01/M03 A2989 RMK
                 AO2 UPB25E29RAB29E42 SLP139 P0000 60000 T00061033 10028 20000 53016 FZRANO =
2017-11-19 17:56 METAR KBTP 192256Z AUTO 27010G17KT 9SM FEW005 BKN044 OVC070 00/M03 A2987 RMK AO2
                 SNE51 SLP130 P0000 T00001028 FZRANO =
2017-11-19 17:51 METAR KBTP 192251Z AUTO 27009G17KT 9SM FEW005 BKN044 OVC055 00/M03 A2986 RMK AO2
                 SNE51 P0000 FZRANO =
2017-11-19 17:42 METAR KBTP 192242Z AUTO 27010G18KT 230V310 3SM -SN BR FEW005 BKN028 OVC044
                 00/M02 A2986 RMK AO2 P0000 FZRANO =
2017-11-19 17:33 METAR KBTP 192233Z AUTO 28008G18KT 1SM -SN BR FEW005 BKN018 BKN028 01/M02 A2986
                 RMK AO2 CIG 010V023 P0000 FZRANO RVRNO =
2017-11-19 17:05 METAR KBTP 192205Z AUTO 27011G19KT 3SM -SN FEW016 BKN028 OVC035 01/M02 A2984 RMK
                 AO2 P0000 FZRANO =
2017-11-19 16:56 METAR KBTP 192156Z AUTO 26010G18KT 8SM -SN SCT025 BKN030 OVC046 01/M02 A2984 RMK
                 AO2 RAB2057E06B36E52UPB06E27B52E55SNB55 SLP122 P0000 T00111017 FZRANO =
2017-11-19 15:56 METAR KBTP 192056Z AUTO 29007KT 8SM SCT030 OVC036 02/M02 A2983 RMK AO2
                 RAB06E42UPB15E52 SLP116 P0000 60000 T00221022 53010 FZRANO =
2017-11-19 14:56 METAR KBTP 191956Z AUTO 27008G14KT 10SM FEW036 SCT049 OVC060 03/M03 A2980 RMK
                 AO2 RAE17B43E54 SLPNO P0000 T00281028 =
2017-11-19 13:56 METAR KBTP 191856Z AUTO 27008G19KT 10SM -RA OVC050 02/M03 A2980 RMK AO2 RAB50
                 SLPNO P0000 T00221033 FZRANO =
2017-11-19 13:09 METAR KBTP 191809Z AUTO 28009G22KT 260V320 10SM FEW027 SCT031 OVC042 02/M02
                 A2979 RMK AO2 FZRANO =
2017-11-19 12:56 METAR KBTP 191756Z AUTO 27011G18KT 10SM BKN027 OVC041 02/M02 A2980 RMK AO2
                 RAB38E50 SLPNO P0001 60002 T00221022 10028 20006 52003 FZRANO =
2017-11-19 12:44 METAR KBTP 191744Z AUTO 26014G23KT 10SM -RA BKN027 BKN039 OVC048 02/M03 A2979
                 RMK AO2 RAB38 P0001 FZRANO =
2017-11-19 11:56 METAR KBTP 191656Z AUTO 27010G17KT 220V300 10SM FEW021 SCT039 OVC049 02/M01
                 A2979 RMK AO2 RAE23UPB37E39SNB23E37 SLPNO P0001 T00221006 FZRANO =
2017-11-19 11:43 METAR KBTP 191643Z AUTO 27008G16KT 10SM FEW007 BKN039 OVC049 02/M01 A2979 RMK
                 AO2 RAE23UPB37E39SNB23E37 P0001 FZRANO =
2017-11-19 11:34 METAR KBTP 191634Z AUTO 27011G20KT 4SM -SN BR SCT009 BKN018 OVC040 01/M01 A2979
                 RMK AO2 RAE23SNB23 P0001 FZRANO =
2017-11-19 11:32 METAR KBTP 191632Z AUTO 27009G15KT 2SM -SN BR FEW007 BKN014 OVC038 01/M01 A2979
                 RMK AO2 RAE23SNB23 P0001 FZRANO =
2017-11-19 11:23 METAR KBTP 191623Z AUTO 27007G17KT 1SM -SN BR FEW005 BKN014 OVC019 01/M01 A2980
                 RMK AO2 VIS 1/4V5 RAE23SNB23 P0000 FZRANO RVRNO =
2017-11-19 11:21 METAR KBTP 191621Z AUTO 28010G17KT 250V320 2SM -RA BR FEW007 BKN014 OVC019
                 02/M01 A2979 RMK AO2 VIS 1/4V5 P0000 FZRANO =
2017-11-19 10:56 METAR KBTP 191556Z AUTO 27010G16KT 8SM -RA BKN023 BKN029 OVC041 02/M02 A2979 RMK
                 AO2 RAB55 SLPNO P0000 T00221017 FZRANO =
2017-11-19 10:43 METAR KBTP 191543Z AUTO 26011G20KT 230V290 10SM BKN025 OVC042 03/M02 A2978 RMK
                 AO2 =
2017-11-19 09:56 METAR KBTP 191456Z AUTO 28007KT 250V320 10SM FEW015 BKN031 OVC045 02/M01 A2977
                 RMK AO2 RAB13E53 SLPNO P0000 60000 T00221006 51033 FZRANO =
2017-11-19 09:29 METAR KBTP 191429Z AUTO 27008G15KT 10SM -RA BKN022 BKN028 OVC035 02/M01 A2975
                 RMK AO2 RAB13 P0000 FZRANO =
2017-11-19 08:56 METAR KBTP 191356Z AUTO 27009G17KT 10SM BKN033 OVC041 02/M01 A2974 RMK AO2 SLPNO
                 T00221011 FZRANO =
2017-11-19 07:56 METAR KBTP 191256Z AUTO 29009KT 10SM SCT010 OVC030 02/01 A2971 RMK AO2
                 RAE25B41E50UPB25E41 SLPNO P0000 T00170006 FZRANO =
2017-11-19 06:56 METAR KBTP 191156Z AUTO 28009G19KT 8SM -RA OVC010 02/01 A2967 RMK AO2
                 UPB1057E06B42E47RAB06 CIG 008V014 SLPNO P0001 6//// 7//// T00220011 51044 FZRANO
                 =
2017-11-19 06:42 METAR KBTP 191142Z AUTO 28010G16KT 10SM UP OVC010 03/01 A2966 RMK AO2
                 UPB1057E06B42RAB06E42 CIG 007V013 P0001 =
2017-11-19 05:56 METAR KBTP 191056Z AUTO 26009G23KT 10SM OVC008 03/02 A2963 RMK AO2 RAE50UPB50E53
                 CIG 007V011 SLPNO P0001 T00280017 =
2017-11-19 04:56 METAR KBTP 190956Z AUTO 27012G20KT 7SM -RA OVC008 03/02 A2959 RMK AO2 SLPNO
                 P0003 T00280017 =
2017-11-19 04:04 METAR KBTP 190904Z AUTO 26014G20KT 6SM -RA BR OVC008 03/02 A2954 RMK AO2 P0001 =
2017-11-19 03:56 METAR KBTP 190856Z AUTO 26010G22KT 230V300 7SM -RA 03/02 A2954 RMK AO2 RAB33
                 SLPNO 6//// T00280017 =
2017-11-19 00:56 METAR KBTP 190556Z AUTO RMK AO2 WSHFT 0443 RAEMM SLPNO P0000 60056 PWINO FZRANO
                 RVRNO $ =
2017-11-19 00:03 METAR KBTP 190503Z AUTO 10SM -RA 09/08 RMK AO2 WSHFT 0443 P0000 $ =
2017-11-18 23:56 METAR KBTP 190456Z AUTO 29013G29KT 250V320 6SM -RA BR SCT007 BKN013 OVC021 11/09
                 A2916 RMK AO2 PK WND 26029/0451 WSHFT 0441 RAE03B40 PRESRR SLP881 P0010
                 T01110089 401330011 =
2017-11-18 23:19 METAR KBTP 190419Z AUTO 18010KT 10SM FEW008 OVC017 13/12 A2912 RMK AO2 RAE03
                 P0000 =

Support USWX by starting your Amazon purchase here.